Brownsville, TX

6:47 PM CDT on September 16, 2014 (GMT -0500)
Brownsville-South Padre I International | Change Station
CLOSE
Current Station
Airport
Location: Brownsville,
Elevation: 20 ft
Nearby Weather Stations

Elev 20 ft 25.91 °N, 97.42 °W | Updated 54 minutes ago

Clear
Clear
88 °F
Feels Like 96 °F
N
13
Wind Variable Wind from SSE

Today
High -- | Low -- °F
--% Chance of Precip.
Yesterday
High -- | Low -- °F
Precip. -- in
7:15 AM 7:32 PM
Last Quarter, 41% visible
Pressure 29.91 in
Visibility 10.0 miles
Clouds Clear
Heat Index 96 °F
Dew Point 74 °F
Humidity 63%
Rainfall 0.00 in
Snow Depth Not available.
UV 2 out of 12
Pollen 8.60 out of 12
Ozone Good
PM2.5 Good
Flu Activity Not available.
METAR KBRO 162253Z 15011KT 10SM CLR 31/23 A2992 RMK AO2 SLP129 T03110233

More Conditions Fewer Conditions

Pressure 29.91 in
Visibility 10.0 miles
Clouds Clear
Heat Index 96 °F
Dew Point 74 °F
Humidity 63%
Rainfall 0.00 in
Snow Depth Not available.
UV 2 out of 12
Pollen 8.60 out of 12
Ozone Good
PM2.5 Good
Flu Activity Not available.
METAR KBRO 162253Z 15011KT 10SM CLR 31/23 A2992 RMK AO2 SLP129 T03110233

More Conditions Fewer Conditions

10-Day Weather Forecast

Almanac

Astronomy

Sep. 16, 2014 Rise Set
Actual Time 7:15 AM CDT 7:32 PM CDT
Civil Twilight 6:52 AM CDT 7:55 PM CDT
Nautical Twilight 6:25 AM CDT 8:22 PM CDT
Astronomical Twilight 5:58 AM CDT 8:49 PM CDT
Moon 12:51 AM CDT 2:32 PM CDT
Length of Visible Light 13h 02m
Length of Day
12h 16m
Tomorrow will be 1m 30s shorter.
Last Quarter, 41% of the Moon is Illuminated
Today
Last Quarter
Sep 24
New
Oct 1
First Quarter
Oct 8
Full
Oct 15
Last Quarter

Today's Extremes

State Highs State Lows

Community

WunderPhotos

Upload Photos

1,753,917 photos uploaded!

Nearby

Air Quality

  Air Quality AQ Index Pollutant
Yesterday Good
PM2.5
Yesterday Good
OZONE
Current Good
OZONE
Current Good
PM2.5
Tuesday Good
PM10
Tuesday Good
OZONE
Wednesday Good
PM10
Wednesday Good
OZONE
Thursday Good
PM10
Thursday Good
OZONE
Friday Good
PM10
Friday Good
OZONE

Snow Depth

Station Depth Elevation
No new snow has been reported.

Earthquake Activity

City Distance Mag. Time & Date
No recent earthquake activity has been reported nearby.
Minimum magnitude displayed is 2.5.

Coastal Water Temperatures

Place Temperature
Port Isabel, TX 82.9 °F
Baffin Bay Point of Rocks, TX 84.9 °F
South Bird Island, TX 84.9 °F
Malaquite Beach (Corpus Christi), TX 84.9 °F
Packery Channel, TX 84.0 °F

Nearby Weather Stations